Time;durP1;ratioP1;P1;durP2;ratioP2;P2;SDS_P1;SDS_P2;PMS_P1;PMS_P2;Temp;Humidity;BMP_temperature;BMP_pressure;BME280_temperature;BME280_humidity;BME280_pressure;Samples;Min_cycle;Max_cycle;Signal;HPM_P1;HPM_P2
2022/01/03 00:01:47;;;;;;;17.20;1.90;;;8.50;99.90;;;;;;5065917;28;20037;-82
2022/01/03 00:04:16;;;;;;;16.98;2.30;;;8.50;99.90;;;;;;5054614;28;20040;-81
2022/01/03 00:06:45;;;;;;;15.45;2.00;;;8.50;99.90;;;;;;5071417;28;20060;-81
2022/01/03 00:09:10;;;;;;;12.95;2.03;;;8.80;99.90;;;;;;5071507;28;20036;-82
2022/01/03 00:11:39;;;;;;;15.05;2.45;;;8.60;99.90;;;;;;5071516;28;20051;-81
2022/01/03 00:14:08;;;;;;;15.55;1.80;;;8.40;99.90;;;;;;5070522;28;20053;-81
2022/01/03 00:16:34;;;;;;;11.35;2.10;;;8.30;99.90;;;;;;5070294;28;20049;-81
2022/01/03 00:19:05;;;;;;;18.08;2.30;;;8.70;99.90;;;;;;5070150;28;20028;-81
2022/01/03 00:21:53;;;;;;;18.42;2.60;;;8.70;99.90;;;;;;5054256;28;20036;-81
2022/01/03 00:25:00;;;;;;;18.98;3.05;;;8.70;99.90;;;;;;5053191;28;20094;-81
2022/01/03 00:28:09;;;;;;;;;;;;;;;;;;;;;
2022/01/03 00:30:39;;;;;;;19.45;3.05;;;8.80;99.90;;;;;;5070995;28;20408;-81
2022/01/03 00:33:58;;;;;;;17.27;2.65;;;8.80;99.90;;;;;;5071133;28;20400;-81
2022/01/03 00:37:23;;;;;;;16.00;2.70;;;8.40;99.90;;;;;;4974528;28;20042;-81
2022/01/03 00:44:19;;;;;;;;;;;;;;;;;;;;;
2022/01/03 00:47:06;;;;;;;19.50;3.30;;;9.00;99.90;;;;;;4954084;29;20086;-81
2022/01/03 00:54:02;;;;;;;19.92;2.92;;;9.00;99.90;;;;;;4916585;29;20040;-82
2022/01/03 00:56:49;;;;;;;16.40;3.05;;;9.00;99.90;;;;;;4901669;29;20098;-81
2022/01/03 00:59:25;;;;;;;20.30;3.22;;;9.00;99.90;;;;;;4900811;29;20048;-82
2022/01/03 01:02:01;;;;;;;28.05;3.40;;;9.00;99.90;;;;;;4938763;28;20074;-80
2022/01/03 01:04:27;;;;;;;27.17;3.42;;;9.00;99.90;;;;;;4984875;28;20100;-81
2022/01/03 01:06:56;;;;;;;28.42;3.42;;;9.00;99.90;;;;;;5013501;28;20059;-79
2022/01/03 01:09:27;;;;;;;32.08;3.95;;;9.60;99.90;;;;;;5056035;28;20080;-79
2022/01/03 01:12:01;;;;;;;22.65;3.50;;;9.00;99.90;;;;;;5073668;28;20036;-79
2022/01/03 01:14:43;;;;;;;19.75;2.95;;;9.00;99.90;;;;;;5074032;28;20549;-81
2022/01/03 01:17:34;;;;;;;30.05;4.38;;;9.30;99.90;;;;;;5068935;28;20045;-81
2022/01/03 01:20:12;;;;;;;34.63;4.22;;;9.90;99.90;;;;;;5057217;28;20063;-81
2022/01/03 01:22:48;;;;;;;27.65;3.63;;;9.00;99.90;;;;;;5056567;28;20044;-81
2022/01/03 01:28:35;;;;;;;28.58;4.00;;;9.00;99.90;;;;;;5070781;28;20041;-81
2022/01/03 01:31:19;;;;;;;26.80;3.67;;;9.20;99.90;;;;;;5027574;28;20044;-82
2022/01/03 01:34:14;;;;;;;32.55;4.22;;;9.20;99.90;;;;;;5057191;28;20052;-81
2022/01/03 01:40:58;;;;;;;30.77;4.05;;;9.00;99.90;;;;;;5030907;28;20064;-82
2022/01/03 01:47:24;;;;;;;;;;;;;;;;;;;;;
2022/01/03 01:50:31;;;;;;;26.10;4.53;;;9.00;99.90;;;;;;4968863;28;20054;-82
2022/01/03 01:53:30;;;;;;;24.40;3.45;;;8.70;99.90;;;;;;4992294;28;20104;-82
2022/01/03 01:56:36;;;;;;;31.65;3.90;;;9.00;99.90;;;;;;4997136;28;20091;-84
2022/01/03 01:59:21;;;;;;;31.35;3.78;;;9.00;99.90;;;;;;5060022;28;20064;-77
2022/01/03 02:02:06;;;;;;;35.47;4.72;;;9.10;99.90;;;;;;5056375;28;20072;-77
2022/01/03 02:04:47;;;;;;;22.20;3.47;;;9.10;99.90;;;;;;5074344;28;20120;-78
2022/01/03 02:07:16;;;;;;;37.35;4.05;;;9.10;99.90;;;;;;5073035;28;20045;-77
2022/01/03 02:09:48;;;;;;;28.27;4.10;;;9.10;99.90;;;;;;5072017;28;20040;-77
2022/01/03 02:12:16;;;;;;;27.45;4.43;;;9.10;99.90;;;;;;5073095;28;20075;-77
2022/01/03 02:14:44;;;;;;;27.63;4.40;;;9.10;99.90;;;;;;5056189;28;20443;-77
2022/01/03 02:17:10;;;;;;;28.67;4.90;;;9.80;99.90;;;;;;5053451;28;20389;-78
2022/01/03 02:19:39;;;;;;;38.10;5.05;;;9.30;99.90;;;;;;5053062;28;20095;-78
2022/01/03 02:22:06;;;;;;;30.63;5.00;;;9.40;99.90;;;;;;5074132;28;20091;-78
2022/01/03 02:24:31;;;;;;;34.47;4.80;;;9.60;99.90;;;;;;5074403;28;20099;-78
2022/01/03 02:27:02;;;;;;;43.40;5.63;;;9.40;99.90;;;;;;5071827;28;20122;-78
2022/01/03 02:29:30;;;;;;;31.15;4.47;;;9.20;99.90;;;;;;5074351;28;20040;-78
2022/01/03 02:31:58;;;;;;;38.92;4.85;;;9.10;99.90;;;;;;5056706;28;20047;-82
2022/01/03 02:34:29;;;;;;;31.02;4.35;;;8.70;99.90;;;;;;5074595;28;20033;-81
2022/01/03 02:36:56;;;;;;;40.47;5.05;;;9.60;99.90;;;;;;5056975;28;20048;-78
2022/01/03 02:39:22;;;;;;;32.47;5.00;;;9.20;99.90;;;;;;5072664;28;20539;-77
2022/01/03 02:41:47;;;;;;;33.67;4.28;;;9.70;99.90;;;;;;5053720;28;20040;-78
2022/01/03 02:44:17;;;;;;;28.45;4.32;;;10.00;99.90;;;;;;5058794;28;20512;-79
2022/01/03 02:46:42;;;;;;;28.70;4.85;;;9.30;99.90;;;;;;5052751;28;20049;-78
2022/01/03 02:49:08;;;;;;;28.15;4.28;;;9.20;99.90;;;;;;5067339;28;20033;-78
2022/01/03 02:51:34;;;;;;;31.35;4.80;;;9.40;99.90;;;;;;5072748;28;20472;-77
2022/01/03 02:54:00;;;;;;;33.80;4.80;;;9.20;99.90;;;;;;5055893;28;20032;-77
2022/01/03 02:56:35;;;;;;;37.72;4.95;;;9.20;99.90;;;;;;5053746;28;20123;-78
2022/01/03 02:59:01;;;;;;;33.88;4.70;;;9.20;99.90;;;;;;5072479;28;20043;-78
2022/01/03 03:01:27;;;;;;;31.95;4.95;;;9.20;99.90;;;;;;5071451;28;20401;-77
2022/01/03 03:03:52;;;;;;;31.55;5.68;;;9.50;99.90;;;;;;5035545;28;20047;-78
2022/01/03 03:06:18;;;;;;;37.85;4.55;;;9.10;99.90;;;;;;5035872;28;20124;-78
2022/01/03 03:08:44;;;;;;;34.75;4.68;;;9.20;99.90;;;;;;5066191;28;20037;-78
2022/01/03 03:11:10;;;;;;;33.28;5.93;;;9.20;99.90;;;;;;5038963;28;20037;-78
2022/01/03 03:13:35;;;;;;;28.60;4.82;;;9.10;99.90;;;;;;5071251;28;20040;-78
2022/01/03 03:16:01;;;;;;;36.85;5.00;;;9.20;99.90;;;;;;5055356;28;20052;-77
2022/01/03 03:18:27;;;;;;;33.22;4.90;;;9.10;99.90;;;;;;5055320;28;20036;-76
2022/01/03 03:20:54;;;;;;;33.53;5.20;;;9.10;99.90;;;;;;5071582;28;20048;-76
2022/01/03 03:23:22;;;;;;;31.58;4.93;;;9.10;99.90;;;;;;5054664;28;20040;-76
2022/01/03 03:25:48;;;;;;;34.83;4.95;;;9.10;99.90;;;;;;5072983;28;20063;-76
2022/01/03 03:28:15;;;;;;;33.63;4.55;;;9.00;99.90;;;;;;5071587;28;20401;-76
2022/01/03 03:30:44;;;;;;;41.53;5.78;;;9.00;99.90;;;;;;5070070;28;20047;-76
2022/01/03 03:33:20;;;;;;;30.85;4.95;;;9.90;99.90;;;;;;5054760;28;20036;-75
2022/01/03 03:35:47;;;;;;;34.78;4.82;;;8.90;99.90;;;;;;5071362;28;20079;-76
2022/01/03 03:38:14;;;;;;;35.15;5.05;;;9.60;99.90;;;;;;5035045;28;20124;-75
2022/01/03 03:40:40;;;;;;;34.60;4.72;;;9.30;99.90;;;;;;5051650;28;20520;-76
2022/01/03 03:43:06;;;;;;;38.50;6.07;;;8.90;99.90;;;;;;5035564;28;20048;-75
2022/01/03 03:45:34;;;;;;;37.42;6.20;;;8.90;99.90;;;;;;5063989;28;20404;-79
2022/01/03 03:48:04;;;;;;;32.67;4.85;;;8.90;99.90;;;;;;5071404;28;20037;-76
2022/01/03 03:50:29;;;;;;;37.45;4.88;;;8.80;99.90;;;;;;5072611;28;20040;-76
2022/01/03 03:52:55;;;;;;;43.58;5.05;;;8.80;99.90;;;;;;5071272;28;20127;-76
2022/01/03 03:55:22;;;;;;;43.67;5.68;;;8.80;99.90;;;;;;5072546;28;20059;-76
2022/01/03 03:57:47;;;;;;;31.85;5.20;;;8.40;99.90;;;;;;5072652;28;20516;-76
2022/01/03 04:00:17;;;;;;;43.55;5.70;;;9.30;99.90;;;;;;5071446;28;20154;-76
2022/01/03 04:02:42;;;;;;;42.25;5.82;;;8.80;99.90;;;;;;5054320;28;20036;-76
2022/01/03 04:05:09;;;;;;;30.75;5.43;;;8.80;99.90;;;;;;5050011;28;20143;-76
2022/01/03 04:07:37;;;;;;;43.22;4.97;;;8.80;99.90;;;;;;5052720;28;20049;-76
2022/01/03 04:10:06;;;;;;;45.13;5.78;;;8.90;99.90;;;;;;5054827;28;20481;-76
2022/01/03 04:12:32;;;;;;;46.25;4.93;;;8.80;99.90;;;;;;5070989;28;20473;-76
2022/01/03 04:14:58;;;;;;;32.85;4.60;;;8.70;99.90;;;;;;5071421;28;20384;-76
2022/01/03 04:17:23;;;;;;;33.80;5.20;;;8.70;99.90;;;;;;5072216;28;20037;-76
2022/01/03 04:19:49;;;;;;;36.50;4.82;;;8.80;99.90;;;;;;5070974;28;20086;-76
2022/01/03 04:22:15;;;;;;;44.58;6.10;;;9.50;99.90;;;;;;5069154;28;20044;-76
2022/01/03 04:24:41;;;;;;;35.58;5.55;;;8.80;99.90;;;;;;5037953;28;20120;-76
2022/01/03 04:27:06;;;;;;;36.33;5.30;;;8.80;99.90;;;;;;5071749;28;20053;-76
2022/01/03 04:29:32;;;;;;;36.90;5.70;;;8.90;99.90;;;;;;5054406;28;20051;-76
2022/01/03 04:31:58;;;;;;;34.28;5.78;;;9.40;99.90;;;;;;5053752;28;20043;-76
2022/01/03 04:34:24;;;;;;;45.80;5.80;;;8.80;99.90;;;;;;5054125;28;20045;-76
2022/01/03 04:36:52;;;;;;;38.83;5.20;;;8.80;99.90;;;;;;5070894;28;20131;-76
2022/01/03 04:39:18;;;;;;;35.70;5.65;;;8.80;99.90;;;;;;5069557;28;20369;-76
2022/01/03 04:41:44;;;;;;;32.58;5.32;;;8.90;99.90;;;;;;5072176;28;20045;-76
2022/01/03 04:44:10;;;;;;;41.50;5.25;;;8.80;99.90;;;;;;5071101;28;20042;-76
2022/01/03 04:46:36;;;;;;;38.83;5.35;;;8.90;99.90;;;;;;5070227;28;20511;-75
2022/01/03 04:49:04;;;;;;;36.40;5.38;;;8.80;99.90;;;;;;5070630;28;20048;-77
2022/01/03 04:51:30;;;;;;;42.92;6.25;;;8.90;99.90;;;;;;5070528;28;20048;-76
2022/01/03 04:53:57;;;;;;;38.20;6.05;;;8.90;99.90;;;;;;5069561;28;20036;-76
2022/01/03 04:56:22;;;;;;;36.20;5.18;;;8.90;99.90;;;;;;5070504;28;20152;-76
2022/01/03 04:58:51;;;;;;;43.92;5.40;;;8.90;99.90;;;;;;5070914;28;20441;-78
2022/01/03 05:01:17;;;;;;;41.85;5.43;;;8.90;99.90;;;;;;5054121;28;20087;-78
2022/01/03 05:03:43;;;;;;;36.20;5.53;;;8.90;99.90;;;;;;5070350;28;20037;-78
2022/01/03 05:06:09;;;;;;;31.85;5.55;;;8.90;99.90;;;;;;5070957;28;20044;-77
2022/01/03 05:08:34;;;;;;;46.38;6.05;;;8.90;99.90;;;;;;5054052;28;20362;-76
2022/01/03 05:11:01;;;;;;;34.17;5.60;;;8.90;99.90;;;;;;5069180;28;20480;-77
2022/01/03 05:13:40;;;;;;;37.83;5.43;;;8.90;99.90;;;;;;5053818;28;20083;-76
2022/01/03 05:16:10;;;;;;;39.40;5.85;;;8.90;99.90;;;;;;5033801;28;20051;-77
2022/01/03 05:18:41;;;;;;;39.25;6.40;;;8.90;99.90;;;;;;5047867;28;20071;-77
2022/01/03 05:21:11;;;;;;;47.25;6.80;;;8.90;99.90;;;;;;5058414;28;20040;-78
2022/01/03 05:23:36;;;;;;;32.80;6.43;;;8.90;99.90;;;;;;5074457;28;20097;-76
2022/01/03 05:26:02;;;;;;;43.15;6.22;;;9.00;99.90;;;;;;5066011;28;20052;-77
2022/01/03 05:28:30;;;;;;;45.58;6.00;;;8.90;99.90;;;;;;5057506;28;20076;-77
2022/01/03 05:30:57;;;;;;;36.58;5.15;;;8.90;99.90;;;;;;5037199;28;20041;-77
2022/01/03 05:33:23;;;;;;;41.17;6.05;;;9.00;99.90;;;;;;5005874;28;20114;-80
2022/01/03 05:35:49;;;;;;;39.85;5.43;;;8.90;99.90;;;;;;5037996;28;20048;-79
2022/01/03 05:38:15;;;;;;;49.60;6.20;;;8.80;99.90;;;;;;5049344;28;20037;-80
2022/01/03 05:40:41;;;;;;;36.17;6.55;;;8.80;99.90;;;;;;5066995;28;20067;-80
2022/01/03 05:43:06;;;;;;;43.60;6.25;;;8.90;99.90;;;;;;5055587;28;20041;-80
2022/01/03 05:45:32;;;;;;;42.75;6.22;;;8.90;99.90;;;;;;5073619;28;20044;-80
2022/01/03 05:48:01;;;;;;;37.05;5.82;;;8.90;99.90;;;;;;5056985;28;20055;-80
2022/01/03 05:50:30;;;;;;;39.95;5.97;;;9.20;99.90;;;;;;5040259;28;20489;-80
2022/01/03 05:52:56;;;;;;;38.05;5.90;;;8.80;99.90;;;;;;5073603;28;20048;-80
2022/01/03 05:55:24;;;;;;;37.67;6.00;;;8.80;99.90;;;;;;5073621;28;20131;-80
2022/01/03 05:57:49;;;;;;;52.40;6.00;;;8.90;99.90;;;;;;5071810;28;20079;-80
2022/01/03 06:00:20;;;;;;;44.50;5.75;;;8.90;99.90;;;;;;5073529;28;20511;-80
2022/01/03 06:02:57;;;;;;;33.80;6.10;;;9.00;99.90;;;;;;5075153;28;20072;-80
2022/01/03 06:08:04;;;;;;;43.33;6.30;;;8.90;99.90;;;;;;5073537;28;20063;-81
2022/01/03 06:10:30;;;;;;;41.33;5.68;;;8.90;99.90;;;;;;5073557;28;20055;-82
2022/01/03 06:12:56;;;;;;;38.72;5.45;;;8.90;99.90;;;;;;5056972;28;20190;-81
2022/01/03 06:15:24;;;;;;;45.28;6.43;;;8.70;99.90;;;;;;5054669;28;20127;-80
2022/01/03 06:17:53;;;;;;;44.33;6.47;;;9.40;99.90;;;;;;5073319;28;20476;-80
2022/01/03 06:20:19;;;;;;;43.25;6.00;;;8.90;99.90;;;;;;5056682;28;20063;-80
2022/01/03 06:22:45;;;;;;;37.55;6.57;;;8.80;99.90;;;;;;5074355;28;20472;-80
2022/01/03 06:25:14;;;;;;;36.33;5.95;;;8.90;99.90;;;;;;5073042;28;20032;-80
2022/01/03 06:27:40;;;;;;;45.25;6.68;;;8.90;99.90;;;;;;5072891;28;20060;-81
2022/01/03 06:30:07;;;;;;;41.10;5.75;;;9.30;99.90;;;;;;5072518;28;20432;-81
2022/01/03 06:32:34;;;;;;;43.70;5.60;;;8.90;99.90;;;;;;5073340;28;20381;-81
2022/01/03 06:35:00;;;;;;;42.45;6.70;;;8.90;99.90;;;;;;5073303;28;20425;-81
2022/01/03 06:37:25;;;;;;;42.50;6.57;;;9.00;99.90;;;;;;5072755;28;20075;-81
2022/01/03 06:39:54;;;;;;;46.63;6.57;;;8.90;99.90;;;;;;5073071;28;20044;-81
2022/01/03 06:42:20;;;;;;;43.05;6.05;;;8.90;99.90;;;;;;5074235;28;20037;-81
2022/01/03 06:44:48;;;;;;;42.63;6.55;;;8.90;99.90;;;;;;5053542;28;20083;-81
2022/01/03 06:47:14;;;;;;;44.80;6.38;;;8.80;99.90;;;;;;5056198;28;20074;-81
2022/01/03 06:49:40;;;;;;;43.35;6.22;;;9.20;99.90;;;;;;5056320;28;20095;-81
2022/01/03 06:52:06;;;;;;;49.22;6.18;;;8.80;99.90;;;;;;5073861;28;20500;-81
2022/01/03 06:54:33;;;;;;;48.20;6.15;;;9.00;99.90;;;;;;5072522;28;20044;-81
2022/01/03 06:56:59;;;;;;;41.22;6.40;;;8.80;99.90;;;;;;5072458;28;20094;-81
2022/01/03 06:59:25;;;;;;;45.38;6.32;;;8.80;99.90;;;;;;5072512;28;20044;-80
2022/01/03 07:01:50;;;;;;;43.10;6.18;;;8.80;99.90;;;;;;5039068;28;20516;-81
2022/01/03 07:04:16;;;;;;;42.95;6.28;;;8.70;99.90;;;;;;5070121;28;20484;-81
2022/01/03 07:06:42;;;;;;;41.42;6.75;;;8.70;99.90;;;;;;5072349;28;20044;-81
2022/01/03 07:09:08;;;;;;;48.70;6.88;;;8.70;99.90;;;;;;5073415;28;20036;-81
2022/01/03 07:11:35;;;;;;;39.92;6.85;;;8.70;99.90;;;;;;5056003;28;20492;-82
2022/01/03 07:19:29;;;;;;;45.50;6.30;;;8.70;99.90;;;;;;5070464;28;20056;-81
2022/01/03 07:21:55;;;;;;;42.60;6.60;;;8.70;99.90;;;;;;5035391;28;20044;-81
2022/01/03 07:24:21;;;;;;;43.30;5.68;;;8.80;99.90;;;;;;5035697;28;20107;-82
2022/01/03 07:26:47;;;;;;;49.97;6.78;;;8.80;99.90;;;;;;5051666;28;20493;-82
2022/01/03 07:29:12;;;;;;;46.53;6.80;;;9.00;99.90;;;;;;5035419;28;20045;-82
2022/01/03 07:31:38;;;;;;;41.72;6.60;;;8.80;99.90;;;;;;5035767;28;20040;-82
2022/01/03 07:34:04;;;;;;;41.13;6.57;;;8.80;99.90;;;;;;5052097;28;20133;-82
2022/01/03 07:36:30;;;;;;;46.65;6.95;;;8.80;99.90;;;;;;5054602;28;20047;-82
2022/01/03 07:38:56;;;;;;;46.97;6.97;;;9.00;99.90;;;;;;5069422;28;20279;-82
2022/01/03 07:41:22;;;;;;;44.67;6.50;;;9.40;99.90;;;;;;5054986;28;20036;-82
2022/01/03 07:43:47;;;;;;;48.78;6.93;;;8.80;99.90;;;;;;5055258;28;20036;-82
2022/01/03 07:46:14;;;;;;;46.08;6.72;;;9.70;99.90;;;;;;5070667;28;20044;-82
2022/01/03 07:48:43;;;;;;;49.65;7.10;;;8.80;99.90;;;;;;5071946;28;20370;-82
2022/01/03 07:51:09;;;;;;;43.42;7.55;;;8.80;99.90;;;;;;5071278;28;20102;-82
2022/01/03 07:53:37;;;;;;;52.22;6.60;;;8.80;99.90;;;;;;5071374;28;20037;-83
2022/01/03 07:56:05;;;;;;;39.92;6.07;;;8.80;99.90;;;;;;5071282;28;20072;-82
2022/01/03 07:58:31;;;;;;;34.72;5.80;;;8.80;99.90;;;;;;5055230;28;20119;-82
2022/01/03 08:00:56;;;;;;;50.42;6.30;;;8.90;99.90;;;;;;5072079;28;20082;-81
2022/01/03 08:03:23;;;;;;;47.75;5.93;;;8.90;99.90;;;;;;5071546;28;20068;-81
2022/01/03 08:05:49;;;;;;;45.08;6.65;;;9.20;99.90;;;;;;5072053;28;20051;-82
2022/01/03 08:08:14;;;;;;;48.15;6.53;;;8.90;99.90;;;;;;5070904;28;20042;-81
2022/01/03 08:10:41;;;;;;;47.95;7.18;;;8.90;99.90;;;;;;5071615;28;20119;-81
2022/01/03 08:16:35;;;;;;;42.58;6.30;;;9.20;99.90;;;;;;5032664;28;20098;-73
2022/01/03 08:19:01;;;;;;;43.00;6.25;;;9.10;99.90;;;;;;5068019;28;20044;-74
2022/01/03 08:21:26;;;;;;;53.08;6.65;;;9.00;99.90;;;;;;5072814;28;20036;-77
2022/01/03 08:23:52;;;;;;;38.83;5.80;;;9.00;99.90;;;;;;5055067;28;20127;-76
2022/01/03 08:26:18;;;;;;;48.38;6.35;;;9.10;99.90;;;;;;5067846;28;20057;-74
2022/01/03 08:28:44;;;;;;;42.03;6.18;;;9.10;99.90;;;;;;5070470;28;20059;-74
2022/01/03 08:31:09;;;;;;;51.45;6.65;;;9.10;99.90;;;;;;5069942;28;20072;-76
2022/01/03 08:33:35;;;;;;;46.97;6.28;;;9.10;99.90;;;;;;5070554;28;20075;-78
2022/01/03 08:36:02;;;;;;;47.03;7.18;;;9.10;99.90;;;;;;5054143;28;20052;-78
2022/01/03 08:38:28;;;;;;;35.63;5.72;;;9.20;99.90;;;;;;5054637;28;20059;-78
2022/01/03 08:40:53;;;;;;;44.08;6.47;;;9.20;99.90;;;;;;5072103;28;20481;-78
2022/01/03 08:43:19;;;;;;;45.40;6.78;;;10.00;99.90;;;;;;5069924;28;20056;-74
2022/01/03 08:45:45;;;;;;;45.58;6.13;;;9.20;99.90;;;;;;5049629;28;20049;-80
2022/01/03 08:48:10;;;;;;;42.60;6.43;;;9.20;99.90;;;;;;5052244;28;20175;-79
2022/01/03 08:50:36;;;;;;;44.20;6.45;;;9.20;99.90;;;;;;5050058;28;20131;-80
2022/01/03 08:53:04;;;;;;;42.03;6.10;;;9.20;99.90;;;;;;5069885;28;20052;-85
2022/01/03 08:55:30;;;;;;;41.60;6.40;;;9.40;99.90;;;;;;5043939;28;20155;-81
2022/01/03 08:57:58;;;;;;;41.92;6.38;;;9.30;99.90;;;;;;5070374;28;20025;-78
2022/01/03 09:00:34;;;;;;;38.38;5.95;;;9.30;99.90;;;;;;5054828;28;20044;-81
2022/01/03 09:03:14;;;;;;;42.17;6.40;;;9.60;99.90;;;;;;5059871;28;20043;-80
2022/01/03 09:05:51;;;;;;;32.05;5.30;;;9.30;99.90;;;;;;5076098;28;20523;-81
2022/01/03 09:08:26;;;;;;;41.90;6.40;;;9.30;99.90;;;;;;5059251;28;20055;-80
2022/01/03 09:10:56;;;;;;;37.03;6.00;;;9.30;99.90;;;;;;5054502;28;20072;-80
2022/01/03 09:13:24;;;;;;;41.83;5.88;;;9.30;99.90;;;;;;5006410;28;20214;-80
2022/01/03 09:15:55;;;;;;;36.95;6.18;;;9.40;99.90;;;;;;5022316;28;20045;-79
2022/01/03 09:18:35;;;;;;;42.90;6.70;;;9.40;99.90;;;;;;5035518;28;20531;-79
2022/01/03 09:21:11;;;;;;;42.10;6.63;;;9.30;99.90;;;;;;5054038;28;20044;-78
2022/01/03 09:23:45;;;;;;;36.25;5.93;;;9.40;99.90;;;;;;5054771;28;20037;-78
2022/01/03 09:29:18;;;;;;;34.22;5.05;;;9.40;99.90;;;;;;5003710;28;20053;-79
2022/01/03 09:31:43;;;;;;;42.13;5.63;;;9.40;99.90;;;;;;5054760;28;20076;-80
2022/01/03 09:34:11;;;;;;;37.28;5.32;;;10.10;99.90;;;;;;5067587;28;20079;-79
2022/01/03 09:36:37;;;;;;;33.88;5.57;;;9.20;99.90;;;;;;5072519;28;20044;-79
2022/01/03 09:39:05;;;;;;;43.90;6.32;;;9.50;99.90;;;;;;5073902;28;20393;-78
2022/01/03 09:41:35;;;;;;;36.55;5.53;;;9.50;99.90;;;;;;5071224;28;20048;-78
2022/01/03 09:44:11;;;;;;;40.45;6.47;;;10.00;99.90;;;;;;5072326;28;20082;-78
2022/01/03 09:46:40;;;;;;;38.65;6.18;;;9.50;99.90;;;;;;5071789;28;20158;-81
2022/01/03 09:49:08;;;;;;;46.03;6.00;;;9.60;99.90;;;;;;5073975;28;20385;-81
2022/01/03 09:51:34;;;;;;;44.72;6.18;;;9.50;99.90;;;;;;5056521;28;20048;-82
2022/01/03 09:54:03;;;;;;;33.17;4.72;;;9.50;99.90;;;;;;5049959;28;20133;-76
2022/01/03 09:56:32;;;;;;;38.08;5.53;;;9.60;99.90;;;;;;5072438;28;20040;-77
2022/01/03 09:59:00;;;;;;;40.50;6.55;;;9.70;99.90;;;;;;5056597;28;20036;-80
2022/01/03 10:01:27;;;;;;;37.88;6.68;;;9.70;99.90;;;;;;5056842;28;20036;-80
2022/01/03 10:03:53;;;;;;;42.75;6.68;;;9.60;99.90;;;;;;5073449;28;20146;-80
2022/01/03 10:06:20;;;;;;;46.47;6.15;;;9.60;99.90;;;;;;5040158;28;20040;-80
2022/01/03 10:08:47;;;;;;;42.88;7.00;;;10.10;99.90;;;;;;5073658;28;20036;-81
2022/01/03 10:11:14;;;;;;;46.83;5.75;;;9.60;99.90;;;;;;5056382;28;20033;-80
2022/01/03 10:13:40;;;;;;;36.35;5.60;;;9.60;99.90;;;;;;5056726;28;20049;-81
2022/01/03 10:16:07;;;;;;;41.42;6.57;;;9.60;99.90;;;;;;5073162;28;20102;-80
2022/01/03 10:18:33;;;;;;;42.28;7.00;;;9.70;99.90;;;;;;5074863;28;20101;-80
2022/01/03 10:21:00;;;;;;;39.22;6.45;;;9.70;99.90;;;;;;5073404;28;20041;-80
2022/01/03 10:23:26;;;;;;;39.17;6.07;;;9.70;99.90;;;;;;5073266;28;20512;-80
2022/01/03 10:25:52;;;;;;;35.42;5.68;;;9.80;99.90;;;;;;5073098;28;20135;-80
2022/01/03 10:28:28;;;;;;;45.47;6.53;;;9.70;99.90;;;;;;5073161;28;20456;-80
2022/01/03 10:30:54;;;;;;;39.20;6.70;;;9.80;99.90;;;;;;5073375;28;20079;-80
2022/01/03 10:33:23;;;;;;;36.20;6.05;;;9.80;99.90;;;;;;5074464;28;20115;-80
2022/01/03 10:35:52;;;;;;;45.42;6.15;;;9.80;99.90;;;;;;5073038;28;20541;-80
2022/01/03 10:38:30;;;;;;;42.08;6.13;;;9.80;99.90;;;;;;5074327;28;20124;-80
2022/01/03 10:41:10;;;;;;;34.00;5.25;;;9.90;99.90;;;;;;5074112;28;20535;-80
2022/01/03 10:43:35;;;;;;;35.50;5.57;;;9.90;99.90;;;;;;5074160;28;20040;-80
2022/01/03 10:46:21;;;;;;;44.72;6.30;;;10.10;99.90;;;;;;5072692;28;20044;-80
2022/01/03 10:48:48;;;;;;;38.67;6.13;;;10.00;99.90;;;;;;5056009;28;20043;-80
2022/01/03 10:51:21;;;;;;;41.97;6.18;;;9.90;99.90;;;;;;5072677;28;20055;-80
2022/01/03 10:53:48;;;;;;;31.13;5.18;;;10.00;99.90;;;;;;5056200;28;20036;-80
2022/01/03 10:56:41;;;;;;;40.92;6.03;;;10.00;99.90;;;;;;5072778;28;20067;-80
2022/01/03 10:59:15;;;;;;;32.92;5.35;;;10.00;99.90;;;;;;5052849;28;20048;-80
2022/01/03 11:01:43;;;;;;;30.85;5.15;;;10.00;99.90;;;;;;5072304;28;20048;-80
2022/01/03 11:04:13;;;;;;;38.35;5.85;;;10.20;99.90;;;;;;5072403;28;20492;-80
2022/01/03 11:11:55;;;;;;;40.83;5.00;;;10.10;99.90;;;;;;5073525;28;20109;-80
2022/01/03 11:14:30;;;;;;;36.88;5.95;;;10.00;99.90;;;;;;5072056;28;20037;-80
2022/01/03 11:16:57;;;;;;;37.72;5.78;;;10.10;99.90;;;;;;5055071;28;20045;-80
2022/01/03 11:19:38;;;;;;;32.08;6.05;;;10.00;99.90;;;;;;5072428;28;20126;-80
2022/01/03 11:22:04;;;;;;;34.28;5.25;;;10.10;99.90;;;;;;5071692;28;20052;-80
2022/01/03 11:24:30;;;;;;;38.25;5.82;;;10.10;99.90;;;;;;5055412;28;20044;-80
2022/01/03 11:26:58;;;;;;;34.10;5.50;;;10.10;99.90;;;;;;5052485;28;20056;-82
2022/01/03 11:29:31;;;;;;;36.00;5.00;;;10.10;99.90;;;;;;5069803;28;20052;-86
2022/01/03 11:32:18;;;;;;;40.65;6.22;;;10.50;99.90;;;;;;5055736;28;20047;-96
2022/01/03 11:34:51;;;;;;;34.15;5.57;;;10.10;99.90;;;;;;5056600;28;20049;-94
2022/01/03 11:37:17;;;;;;;36.33;5.47;;;10.10;99.90;;;;;;5036363;28;20047;-90
2022/01/03 11:39:59;;;;;;;40.42;6.47;;;10.00;99.90;;;;;;5055932;28;20396;-91
2022/01/03 11:42:27;;;;;;;39.35;5.78;;;10.10;99.90;;;;;;5035883;28;20037;-92
2022/01/03 11:44:57;;;;;;;38.97;5.85;;;10.20;99.90;;;;;;5069039;28;20106;-91
2022/01/03 11:47:24;;;;;;;37.63;6.18;;;10.10;99.90;;;;;;5053309;28;20044;-90
2022/01/03 11:50:06;;;;;;;;;;;;;;;;;;;;;
2022/01/03 11:52:42;;;;;;;28.23;4.68;;;10.20;99.90;;;;;;5070033;28;20052;-93
2022/01/03 11:55:15;;;;;;;42.17;6.47;;;10.80;99.90;;;;;;5054528;28;20040;-94
2022/01/03 11:58:23;;;;;;;39.08;5.22;;;10.10;99.90;;;;;;5051561;28;20515;-94
2022/01/03 12:04:12;;;;;;;38.20;5.43;;;10.30;99.90;;;;;;5071031;28;20045;-91
2022/01/03 12:06:42;;;;;;;43.45;6.38;;;10.30;99.90;;;;;;5057680;28;20357;-95
2022/01/03 12:09:14;;;;;;;37.10;5.32;;;10.30;99.90;;;;;;5055933;28;20043;-90
2022/01/03 12:12:01;;;;;;;36.28;5.30;;;10.20;99.90;;;;;;5055818;28;20127;-95
2022/01/03 12:14:46;;;;;;;34.42;5.47;;;10.30;99.90;;;;;;5069560;28;20056;-92
2022/01/03 12:17:16;;;;;;;31.00;5.28;;;10.30;99.90;;;;;;5051463;28;20091;-91
2022/01/03 12:19:45;;;;;;;36.80;5.40;;;10.30;99.90;;;;;;5036624;28;20043;-93
2022/01/03 12:22:23;;;;;;;36.60;5.03;;;10.30;99.90;;;;;;5054976;28;20025;-94
2022/01/03 12:25:23;;;;;;;32.17;5.63;;;10.30;99.90;;;;;;5073933;28;20033;-93
2022/01/03 12:27:55;;;;;;;38.90;6.10;;;10.30;99.90;;;;;;5053530;28;20451;-88
2022/01/03 12:30:25;;;;;;;33.15;5.85;;;10.40;99.90;;;;;;5038878;28;20397;-91
2022/01/03 12:33:06;;;;;;;38.85;5.57;;;10.50;99.90;;;;;;5053212;28;20524;-93
2022/01/03 12:35:37;;;;;;;29.25;5.13;;;10.90;99.90;;;;;;5050344;28;20127;-91
2022/01/03 12:38:04;;;;;;;39.85;5.47;;;10.20;99.90;;;;;;5075137;28;20440;-89
2022/01/03 12:40:45;;;;;;;36.28;5.72;;;10.90;99.90;;;;;;5057150;28;20043;-89
2022/01/03 12:43:12;;;;;;;35.83;5.05;;;10.70;99.90;;;;;;5056735;28;20568;-84
2022/01/03 12:45:44;;;;;;;31.52;5.68;;;10.30;99.90;;;;;;5076673;28;20036;-83
2022/01/03 12:50:40;;;;;;;36.60;5.28;;;10.40;99.90;;;;;;5073245;28;20047;-84
2022/01/03 12:53:08;;;;;;;37.47;5.95;;;10.40;99.90;;;;;;5075054;28;20438;-81
2022/01/03 12:55:36;;;;;;;33.42;5.53;;;10.50;99.90;;;;;;5056996;28;20041;-81
2022/01/03 12:58:14;;;;;;;35.22;5.50;;;10.90;99.90;;;;;;5076148;28;20115;-82
2022/01/03 13:00:45;;;;;;;31.63;5.47;;;10.50;99.90;;;;;;5074878;28;20041;-83
2022/01/03 13:03:47;;;;;;;32.45;5.55;;;10.50;99.90;;;;;;5058084;28;20036;-83
2022/01/03 13:06:15;;;;;;;38.28;5.22;;;11.30;99.90;;;;;;5056501;28;20040;-81
2022/01/03 13:08:41;;;;;;;37.00;5.45;;;11.30;99.90;;;;;;5073669;28;20076;-80
2022/01/03 13:11:12;;;;;;;38.90;6.03;;;10.50;99.90;;;;;;5072642;28;20052;-81
2022/01/03 13:13:40;;;;;;;36.75;5.93;;;10.50;99.90;;;;;;5072952;28;20037;-81
2022/01/03 13:16:22;;;;;;;32.03;5.50;;;10.50;99.90;;;;;;5072769;28;20072;-81
2022/01/03 13:18:57;;;;;;;30.10;5.25;;;10.70;99.90;;;;;;5056464;28;20081;-79
2022/01/03 13:21:25;;;;;;;25.13;4.85;;;10.40;99.90;;;;;;5073754;28;20384;-76
2022/01/03 13:23:55;;;;;;;33.80;5.70;;;10.40;99.90;;;;;;5072199;28;20064;-75
2022/01/03 13:26:22;;;;;;;32.30;5.50;;;10.40;99.90;;;;;;5072282;28;20400;-75
2022/01/03 13:28:51;;;;;;;37.63;5.68;;;10.20;99.90;;;;;;5056983;28;20048;-75
2022/01/03 13:31:17;;;;;;;37.90;6.32;;;10.40;99.90;;;;;;5055934;28;20098;-79
2022/01/03 13:33:45;;;;;;;36.85;7.10;;;10.40;99.90;;;;;;5057640;28;20040;-79
2022/01/03 13:36:18;;;;;;;37.80;5.88;;;10.40;99.90;;;;;;5056962;28;20044;-79
2022/01/03 13:38:49;;;;;;;36.45;6.28;;;10.40;99.90;;;;;;5057861;28;20082;-78
2022/01/03 13:41:17;;;;;;;33.65;4.90;;;10.30;99.90;;;;;;5075176;28;20033;-78
2022/01/03 13:43:55;;;;;;;35.70;5.95;;;10.30;99.90;;;;;;5029224;28;20051;-84
2022/01/03 13:49:22;;;;;;;36.53;6.18;;;10.30;99.90;;;;;;5074700;28;20041;-84
2022/01/03 13:51:49;;;;;;;37.10;5.97;;;10.30;99.90;;;;;;5055499;28;20033;-90
2022/01/03 13:54:32;;;;;;;41.80;5.93;;;10.30;99.90;;;;;;5088816;28;20091;-88